sensor_id;sensor_type;location;lat;lon;timestamp;pressure;altitude;pressure_sealevel;temperature;humidity
63582;BME280;49727;51.078;17.066;2022-07-29T00:09:40;100443.41;;;15.63;49.33
63582;BME280;49727;51.078;17.066;2022-07-29T00:24:41;100451.22;;;15.51;50.00
63582;BME280;49727;51.078;17.066;2022-07-29T00:39:41;100431.09;;;15.40;50.41
63582;BME280;49727;51.078;17.066;2022-07-29T00:54:42;100430.78;;;15.29;50.98
63582;BME280;49727;51.078;17.066;2022-07-29T01:09:43;100429.41;;;15.11;51.29
63582;BME280;49727;51.078;17.066;2022-07-29T01:40:15;100420.25;;;14.77;53.13
63582;BME280;49727;51.078;17.066;2022-07-29T01:55:20;100411.44;;;14.62;53.59
63582;BME280;49727;51.078;17.066;2022-07-29T02:10:26;100406.19;;;14.53;54.50
63582;BME280;49727;51.078;17.066;2022-07-29T02:25:28;100397.81;;;14.42;54.78
63582;BME280;49727;51.078;17.066;2022-07-29T02:40:29;100403.13;;;14.20;54.87
63582;BME280;49727;51.078;17.066;2022-07-29T02:55:33;100401.16;;;14.07;55.95
63582;BME280;49727;51.078;17.066;2022-07-29T03:10:34;100406.81;;;13.97;56.67
63582;BME280;49727;51.078;17.066;2022-07-29T03:25:36;100409.97;;;13.86;57.33
63582;BME280;49727;51.078;17.066;2022-07-29T03:40:51;100416.78;;;13.88;57.79
63582;BME280;49727;51.078;17.066;2022-07-29T03:55:54;100423.97;;;14.03;57.99
63582;BME280;49727;51.078;17.066;2022-07-29T04:10:59;100428.38;;;14.26;58.29
63582;BME280;49727;51.078;17.066;2022-07-29T04:25:59;100419.56;;;14.68;58.09
63582;BME280;49727;51.078;17.066;2022-07-29T04:41:01;100417.28;;;15.44;57.14
63582;BME280;49727;51.078;17.066;2022-07-29T04:56:01;100416.47;;;16.40;56.21
63582;BME280;49727;51.078;17.066;2022-07-29T05:11:02;100415.56;;;17.08;54.78
63582;BME280;49727;51.078;17.066;2022-07-29T05:26:03;100414.69;;;17.48;53.46
63582;BME280;49727;51.078;17.066;2022-07-29T05:41:04;100420.34;;;17.98;52.70
63582;BME280;49727;51.078;17.066;2022-07-29T05:56:05;100418.53;;;18.69;51.48
63582;BME280;49727;51.078;17.066;2022-07-29T06:11:06;100415.28;;;19.36;50.33
63582;BME280;49727;51.078;17.066;2022-07-29T06:26:07;100413.50;;;20.53;48.38
63582;BME280;49727;51.078;17.066;2022-07-29T06:41:08;100406.53;;;21.47;46.06
63582;BME280;49727;51.078;17.066;2022-07-29T06:56:12;100424.69;;;22.52;43.89
63582;BME280;49727;51.078;17.066;2022-07-29T07:11:13;100409.97;;;22.64;42.11
63582;BME280;49727;51.078;17.066;2022-07-29T07:26:14;100399.78;;;23.23;41.24
63582;BME280;49727;51.078;17.066;2022-07-29T07:41:14;100393.63;;;24.16;39.34
63582;BME280;49727;51.078;17.066;2022-07-29T07:56:15;100402.38;;;24.45;38.59
63582;BME280;49727;51.078;17.066;2022-07-29T08:11:16;100403.03;;;24.90;38.21
63582;BME280;49727;51.078;17.066;2022-07-29T08:26:17;100388.75;;;25.48;37.27
63582;BME280;49727;51.078;17.066;2022-07-29T08:41:20;100396.56;;;25.92;36.76
63582;BME280;49727;51.078;17.066;2022-07-29T08:56:22;100384.69;;;26.50;36.05
63582;BME280;49727;51.078;17.066;2022-07-29T09:11:22;100374.00;;;27.91;33.35
63582;BME280;49727;51.078;17.066;2022-07-29T09:26:28;100370.72;;;28.79;32.15
63582;BME280;49727;51.078;17.066;2022-07-29T09:41:29;100361.34;;;28.11;33.08
63582;BME280;49727;51.078;17.066;2022-07-29T09:56:40;100351.19;;;27.61;33.43
63582;BME280;49727;51.078;17.066;2022-07-29T10:11:40;100346.50;;;27.67;33.83
63582;BME280;49727;51.078;17.066;2022-07-29T10:26:41;100338.41;;;27.96;33.67
63582;BME280;49727;51.078;17.066;2022-07-29T11:27:36;100314.75;;;30.81;28.95
63582;BME280;49727;51.078;17.066;2022-07-29T11:42:41;100314.66;;;29.63;29.80
63582;BME280;49727;51.078;17.066;2022-07-29T11:58:00;100324.16;;;29.51;30.00
63582;BME280;49727;51.078;17.066;2022-07-29T12:13:01;100312.47;;;30.03;29.72
63582;BME280;49727;51.078;17.066;2022-07-29T12:28:06;100297.31;;;30.05;30.38
63582;BME280;49727;51.078;17.066;2022-07-29T12:43:09;100285.91;;;29.98;30.08
63582;BME280;49727;51.078;17.066;2022-07-29T12:58:10;100281.97;;;30.04;30.09
63582;BME280;49727;51.078;17.066;2022-07-29T13:13:13;100253.34;;;31.27;29.21
63582;BME280;49727;51.078;17.066;2022-07-29T13:28:13;100247.53;;;31.29;28.65
63582;BME280;49727;51.078;17.066;2022-07-29T13:43:14;100239.72;;;30.80;29.08
63582;BME280;49727;51.078;17.066;2022-07-29T13:58:14;100227.72;;;29.96;30.51
63582;BME280;49727;51.078;17.066;2022-07-29T14:13:14;100228.16;;;30.03;31.01
63582;BME280;49727;51.078;17.066;2022-07-29T14:28:15;100213.91;;;30.01;31.04
63582;BME280;49727;51.078;17.066;2022-07-29T14:43:16;100210.38;;;29.44;31.86
63582;BME280;49727;51.078;17.066;2022-07-29T14:58:17;100208.22;;;28.73;32.82
63582;BME280;49727;51.078;17.066;2022-07-29T15:13:17;100202.06;;;28.03;33.79
63582;BME280;49727;51.078;17.066;2022-07-29T15:28:18;100198.50;;;27.63;34.64
63582;BME280;49727;51.078;17.066;2022-07-29T15:43:18;100182.53;;;27.36;35.71
63582;BME280;49727;51.078;17.066;2022-07-29T15:58:18;100180.78;;;27.00;36.22
63582;BME280;49727;51.078;17.066;2022-07-29T16:13:19;100175.44;;;26.54;37.28
63582;BME280;49727;51.078;17.066;2022-07-29T16:28:19;100164.59;;;25.92;40.47
63582;BME280;49727;51.078;17.066;2022-07-29T16:43:19;100147.13;;;25.73;42.53
63582;BME280;49727;51.078;17.066;2022-07-29T16:58:20;100154.97;;;25.28;43.90
63582;BME280;49727;51.078;17.066;2022-07-29T17:13:20;100152.69;;;24.94;44.71
63582;BME280;49727;51.078;17.066;2022-07-29T17:28:20;100150.63;;;24.21;46.21
63582;BME280;49727;51.078;17.066;2022-07-29T17:43:21;100172.78;;;23.70;48.11
63582;BME280;49727;51.078;17.066;2022-07-29T17:58:21;100177.81;;;23.28;49.04
63582;BME280;49727;51.078;17.066;2022-07-29T18:13:21;100189.88;;;22.93;50.72
63582;BME280;49727;51.078;17.066;2022-07-29T18:28:22;100186.22;;;23.05;51.05
63582;BME280;49727;51.078;17.066;2022-07-29T18:43:22;100187.34;;;22.87;51.57
63582;BME280;49727;51.078;17.066;2022-07-29T18:58:22;100178.66;;;22.68;52.20
63582;BME280;49727;51.078;17.066;2022-07-29T19:13:23;100193.34;;;22.67;52.48
63582;BME280;49727;51.078;17.066;2022-07-29T19:28:23;100178.75;;;22.73;52.53
63582;BME280;49727;51.078;17.066;2022-07-29T19:43:24;100180.78;;;22.82;52.83
63582;BME280;49727;51.078;17.066;2022-07-29T19:58:24;100170.41;;;22.57;53.21
63582;BME280;49727;51.078;17.066;2022-07-29T20:13:24;100175.94;;;22.11;54.22
63582;BME280;49727;51.078;17.066;2022-07-29T20:28:25;100183.00;;;21.78;55.53
63582;BME280;49727;51.078;17.066;2022-07-29T20:43:25;100198.34;;;21.73;55.92
63582;BME280;49727;51.078;17.066;2022-07-29T20:58:26;100197.94;;;21.81;56.31
63582;BME280;49727;51.078;17.066;2022-07-29T21:13:27;100184.66;;;22.13;55.91
63582;BME280;49727;51.078;17.066;2022-07-29T21:28:27;100176.44;;;21.91;55.93
63582;BME280;49727;51.078;17.066;2022-07-29T21:43:35;100160.94;;;21.58;56.42
63582;BME280;49727;51.078;17.066;2022-07-29T21:58:36;100179.41;;;21.32;57.25
63582;BME280;49727;51.078;17.066;2022-07-29T22:13:36;100150.31;;;21.10;57.93
63582;BME280;49727;51.078;17.066;2022-07-29T22:28:36;100155.47;;;20.83;57.91
63582;BME280;49727;51.078;17.066;2022-07-29T22:43:37;100126.22;;;20.33;58.11
63582;BME280;49727;51.078;17.066;2022-07-29T22:58:38;100100.66;;;20.52;57.96
63582;BME280;49727;51.078;17.066;2022-07-29T23:13:39;100113.38;;;20.40;57.12
63582;BME280;49727;51.078;17.066;2022-07-29T23:28:39;100093.94;;;20.31;56.56
63582;BME280;49727;51.078;17.066;2022-07-29T23:43:40;100087.97;;;19.70;56.57
63582;BME280;49727;51.078;17.066;2022-07-29T23:58:40;100068.00;;;19.28;56.16
